sensor_id;sensor_type;location;lat;lon;timestamp;P1;durP1;ratioP1;P2;durP2;ratioP2
66371;SDS011;53168;51.146;17.120;2023-08-06T00:00:09;1.98;;;1.98;;
66371;SDS011;53168;51.146;17.120;2023-08-06T00:03:02;2.11;;;2.11;;
66371;SDS011;53168;51.146;17.120;2023-08-06T00:05:34;2.08;;;2.08;;
66371;SDS011;53168;51.146;17.120;2023-08-06T00:08:04;1.92;;;1.92;;
66371;SDS011;53168;51.146;17.120;2023-08-06T00:10:34;1.83;;;1.83;;
66371;SDS011;53168;51.146;17.120;2023-08-06T00:13:03;1.90;;;1.90;;
66371;SDS011;53168;51.146;17.120;2023-08-06T00:15:33;2.00;;;2.00;;
66371;SDS011;53168;51.146;17.120;2023-08-06T00:18:03;1.81;;;1.81;;
66371;SDS011;53168;51.146;17.120;2023-08-06T00:20:33;2.21;;;2.21;;
66371;SDS011;53168;51.146;17.120;2023-08-06T00:23:03;1.91;;;1.91;;
66371;SDS011;53168;51.146;17.120;2023-08-06T00:25:33;1.80;;;1.80;;
66371;SDS011;53168;51.146;17.120;2023-08-06T00:28:03;1.85;;;1.85;;
66371;SDS011;53168;51.146;17.120;2023-08-06T00:30:42;1.84;;;1.84;;
66371;SDS011;53168;51.146;17.120;2023-08-06T00:33:12;2.12;;;2.12;;
66371;SDS011;53168;51.146;17.120;2023-08-06T00:35:42;1.93;;;1.93;;
66371;SDS011;53168;51.146;17.120;2023-08-06T00:38:11;1.89;;;1.89;;
66371;SDS011;53168;51.146;17.120;2023-08-06T00:40:41;1.94;;;1.94;;
66371;SDS011;53168;51.146;17.120;2023-08-06T00:43:11;2.11;;;2.11;;
66371;SDS011;53168;51.146;17.120;2023-08-06T00:45:41;2.37;;;2.37;;
66371;SDS011;53168;51.146;17.120;2023-08-06T00:48:11;2.29;;;2.29;;
66371;SDS011;53168;51.146;17.120;2023-08-06T00:50:41;2.26;;;2.26;;
66371;SDS011;53168;51.146;17.120;2023-08-06T00:53:11;2.08;;;2.08;;
66371;SDS011;53168;51.146;17.120;2023-08-06T00:55:42;1.74;;;1.74;;
66371;SDS011;53168;51.146;17.120;2023-08-06T00:58:14;1.84;;;1.84;;
66371;SDS011;53168;51.146;17.120;2023-08-06T01:00:46;1.79;;;1.79;;
66371;SDS011;53168;51.146;17.120;2023-08-06T01:03:16;1.72;;;1.72;;
66371;SDS011;53168;51.146;17.120;2023-08-06T01:05:46;1.78;;;1.78;;
66371;SDS011;53168;51.146;17.120;2023-08-06T01:08:19;1.59;;;1.59;;
66371;SDS011;53168;51.146;17.120;2023-08-06T01:11:11;1.45;;;1.45;;
66371;SDS011;53168;51.146;17.120;2023-08-06T01:13:58;1.66;;;1.66;;
66371;SDS011;53168;51.146;17.120;2023-08-06T01:16:35;1.39;;;1.39;;
66371;SDS011;53168;51.146;17.120;2023-08-06T01:19:16;1.56;;;1.56;;
66371;SDS011;53168;51.146;17.120;2023-08-06T01:21:54;1.38;;;1.38;;
66371;SDS011;53168;51.146;17.120;2023-08-06T01:24:23;1.56;;;1.56;;
66371;SDS011;53168;51.146;17.120;2023-08-06T01:26:58;1.33;;;1.33;;
66371;SDS011;53168;51.146;17.120;2023-08-06T01:29:39;1.31;;;1.31;;
66371;SDS011;53168;51.146;17.120;2023-08-06T01:32:19;1.20;;;1.20;;
66371;SDS011;53168;51.146;17.120;2023-08-06T01:34:52;1.13;;;1.13;;
66371;SDS011;53168;51.146;17.120;2023-08-06T01:37:27;0.97;;;0.97;;
66371;SDS011;53168;51.146;17.120;2023-08-06T01:40:06;0.96;;;0.96;;
66371;SDS011;53168;51.146;17.120;2023-08-06T01:42:40;0.98;;;0.98;;
66371;SDS011;53168;51.146;17.120;2023-08-06T01:45:10;0.97;;;0.97;;
66371;SDS011;53168;51.146;17.120;2023-08-06T01:47:44;0.88;;;0.88;;
66371;SDS011;53168;51.146;17.120;2023-08-06T01:50:14;1.54;;;1.54;;
66371;SDS011;53168;51.146;17.120;2023-08-06T01:52:45;2.18;;;2.18;;
66371;SDS011;53168;51.146;17.120;2023-08-06T01:55:15;0.87;;;0.87;;
66371;SDS011;53168;51.146;17.120;2023-08-06T01:57:47;1.02;;;1.02;;
66371;SDS011;53168;51.146;17.120;2023-08-06T02:00:17;0.91;;;0.91;;
66371;SDS011;53168;51.146;17.120;2023-08-06T02:02:47;1.00;;;1.00;;
66371;SDS011;53168;51.146;17.120;2023-08-06T02:05:17;0.85;;;0.85;;
66371;SDS011;53168;51.146;17.120;2023-08-06T02:07:46;0.97;;;0.97;;
66371;SDS011;53168;51.146;17.120;2023-08-06T02:10:16;0.75;;;0.75;;
66371;SDS011;53168;51.146;17.120;2023-08-06T02:12:46;0.93;;;0.93;;
66371;SDS011;53168;51.146;17.120;2023-08-06T02:15:15;0.82;;;0.82;;
66371;SDS011;53168;51.146;17.120;2023-08-06T02:17:45;0.80;;;0.80;;
66371;SDS011;53168;51.146;17.120;2023-08-06T02:20:15;0.90;;;0.90;;
66371;SDS011;53168;51.146;17.120;2023-08-06T02:22:45;1.08;;;1.08;;
66371;SDS011;53168;51.146;17.120;2023-08-06T02:25:15;1.13;;;1.13;;
66371;SDS011;53168;51.146;17.120;2023-08-06T02:27:45;1.15;;;1.15;;
66371;SDS011;53168;51.146;17.120;2023-08-06T02:30:14;1.02;;;1.02;;
66371;SDS011;53168;51.146;17.120;2023-08-06T02:32:44;1.11;;;1.11;;
66371;SDS011;53168;51.146;17.120;2023-08-06T02:35:14;1.11;;;1.11;;
66371;SDS011;53168;51.146;17.120;2023-08-06T02:37:43;1.00;;;1.00;;
66371;SDS011;53168;51.146;17.120;2023-08-06T02:40:13;1.03;;;1.03;;
66371;SDS011;53168;51.146;17.120;2023-08-06T02:42:43;1.03;;;1.03;;
66371;SDS011;53168;51.146;17.120;2023-08-06T02:45:13;0.96;;;0.96;;
66371;SDS011;53168;51.146;17.120;2023-08-06T02:47:42;0.92;;;0.92;;
66371;SDS011;53168;51.146;17.120;2023-08-06T02:50:12;0.94;;;0.94;;
66371;SDS011;53168;51.146;17.120;2023-08-06T02:52:42;1.01;;;1.01;;
66371;SDS011;53168;51.146;17.120;2023-08-06T02:55:12;1.06;;;1.06;;
66371;SDS011;53168;51.146;17.120;2023-08-06T02:57:44;0.93;;;0.93;;
66371;SDS011;53168;51.146;17.120;2023-08-06T03:00:14;0.85;;;0.85;;
66371;SDS011;53168;51.146;17.120;2023-08-06T03:02:44;0.84;;;0.84;;
66371;SDS011;53168;51.146;17.120;2023-08-06T03:05:39;0.86;;;0.86;;
66371;SDS011;53168;51.146;17.120;2023-08-06T03:08:19;0.87;;;0.87;;
66371;SDS011;53168;51.146;17.120;2023-08-06T03:10:50;0.81;;;0.81;;
66371;SDS011;53168;51.146;17.120;2023-08-06T03:13:20;0.80;;;0.80;;
66371;SDS011;53168;51.146;17.120;2023-08-06T03:15:54;0.82;;;0.82;;
66371;SDS011;53168;51.146;17.120;2023-08-06T03:18:27;0.66;;;0.66;;
66371;SDS011;53168;51.146;17.120;2023-08-06T03:20:58;0.72;;;0.72;;
66371;SDS011;53168;51.146;17.120;2023-08-06T03:23:29;0.71;;;0.71;;
66371;SDS011;53168;51.146;17.120;2023-08-06T03:26:01;0.62;;;0.62;;
66371;SDS011;53168;51.146;17.120;2023-08-06T03:28:32;0.64;;;0.64;;
66371;SDS011;53168;51.146;17.120;2023-08-06T03:31:02;0.55;;;0.55;;
66371;SDS011;53168;51.146;17.120;2023-08-06T03:33:37;0.53;;;0.53;;
66371;SDS011;53168;51.146;17.120;2023-08-06T03:36:10;0.53;;;0.53;;
66371;SDS011;53168;51.146;17.120;2023-08-06T03:38:40;0.53;;;0.53;;
66371;SDS011;53168;51.146;17.120;2023-08-06T03:41:15;0.47;;;0.47;;
66371;SDS011;53168;51.146;17.120;2023-08-06T03:43:45;0.46;;;0.46;;
66371;SDS011;53168;51.146;17.120;2023-08-06T03:46:20;0.44;;;0.44;;
66371;SDS011;53168;51.146;17.120;2023-08-06T03:48:50;0.48;;;0.48;;
66371;SDS011;53168;51.146;17.120;2023-08-06T03:51:20;0.53;;;0.53;;
66371;SDS011;53168;51.146;17.120;2023-08-06T03:53:50;0.52;;;0.52;;
66371;SDS011;53168;51.146;17.120;2023-08-06T03:56:19;0.38;;;0.38;;
66371;SDS011;53168;51.146;17.120;2023-08-06T03:58:50;0.46;;;0.46;;
66371;SDS011;53168;51.146;17.120;2023-08-06T04:01:21;0.43;;;0.43;;
66371;SDS011;53168;51.146;17.120;2023-08-06T04:03:52;0.54;;;0.54;;
66371;SDS011;53168;51.146;17.120;2023-08-06T04:06:21;0.41;;;0.41;;
66371;SDS011;53168;51.146;17.120;2023-08-06T04:08:52;0.84;;;0.84;;
66371;SDS011;53168;51.146;17.120;2023-08-06T04:11:22;0.87;;;0.87;;
66371;SDS011;53168;51.146;17.120;2023-08-06T04:13:52;0.56;;;0.56;;
66371;SDS011;53168;51.146;17.120;2023-08-06T04:16:25;0.70;;;0.70;;
66371;SDS011;53168;51.146;17.120;2023-08-06T04:18:57;0.89;;;0.89;;
66371;SDS011;53168;51.146;17.120;2023-08-06T04:21:26;0.74;;;0.74;;
66371;SDS011;53168;51.146;17.120;2023-08-06T04:23:56;0.53;;;0.53;;
66371;SDS011;53168;51.146;17.120;2023-08-06T04:26:27;0.39;;;0.39;;
66371;SDS011;53168;51.146;17.120;2023-08-06T04:28:58;0.44;;;0.44;;
66371;SDS011;53168;51.146;17.120;2023-08-06T04:31:42;0.51;;;0.51;;
66371;SDS011;53168;51.146;17.120;2023-08-06T04:34:14;0.59;;;0.59;;
66371;SDS011;53168;51.146;17.120;2023-08-06T04:37:02;0.48;;;0.48;;
66371;SDS011;53168;51.146;17.120;2023-08-06T04:39:33;0.54;;;0.54;;
66371;SDS011;53168;51.146;17.120;2023-08-06T04:42:03;0.51;;;0.51;;
66371;SDS011;53168;51.146;17.120;2023-08-06T04:44:34;0.49;;;0.49;;
66371;SDS011;53168;51.146;17.120;2023-08-06T04:47:06;0.42;;;0.42;;
66371;SDS011;53168;51.146;17.120;2023-08-06T04:49:36;0.48;;;0.47;;
66371;SDS011;53168;51.146;17.120;2023-08-06T04:52:06;0.58;;;0.57;;
66371;SDS011;53168;51.146;17.120;2023-08-06T04:54:36;0.50;;;0.49;;
66371;SDS011;53168;51.146;17.120;2023-08-06T04:57:05;0.44;;;0.43;;
66371;SDS011;53168;51.146;17.120;2023-08-06T04:59:36;0.37;;;0.37;;
66371;SDS011;53168;51.146;17.120;2023-08-06T05:02:06;0.30;;;0.30;;
66371;SDS011;53168;51.146;17.120;2023-08-06T05:04:36;0.29;;;0.29;;
66371;SDS011;53168;51.146;17.120;2023-08-06T05:07:06;0.45;;;0.45;;
66371;SDS011;53168;51.146;17.120;2023-08-06T05:09:36;0.47;;;0.47;;
66371;SDS011;53168;51.146;17.120;2023-08-06T05:12:08;0.50;;;0.49;;
66371;SDS011;53168;51.146;17.120;2023-08-06T05:14:42;0.46;;;0.45;;
66371;SDS011;53168;51.146;17.120;2023-08-06T05:17:12;0.36;;;0.35;;
66371;SDS011;53168;51.146;17.120;2023-08-06T05:19:44;0.47;;;0.46;;
66371;SDS011;53168;51.146;17.120;2023-08-06T05:22:14;0.40;;;0.40;;
66371;SDS011;53168;51.146;17.120;2023-08-06T05:24:44;0.45;;;0.45;;
66371;SDS011;53168;51.146;17.120;2023-08-06T05:27:13;0.68;;;0.68;;
66371;SDS011;53168;51.146;17.120;2023-08-06T05:29:46;0.60;;;0.60;;
66371;SDS011;53168;51.146;17.120;2023-08-06T05:32:16;0.51;;;0.51;;
66371;SDS011;53168;51.146;17.120;2023-08-06T05:34:46;0.55;;;0.55;;
66371;SDS011;53168;51.146;17.120;2023-08-06T05:37:15;0.52;;;0.52;;
66371;SDS011;53168;51.146;17.120;2023-08-06T05:39:45;0.55;;;0.55;;
66371;SDS011;53168;51.146;17.120;2023-08-06T05:42:14;0.46;;;0.46;;
66371;SDS011;53168;51.146;17.120;2023-08-06T05:44:46;0.45;;;0.45;;
66371;SDS011;53168;51.146;17.120;2023-08-06T05:47:16;0.55;;;0.55;;
66371;SDS011;53168;51.146;17.120;2023-08-06T05:49:47;0.71;;;0.71;;
66371;SDS011;53168;51.146;17.120;2023-08-06T05:52:17;0.55;;;0.55;;
66371;SDS011;53168;51.146;17.120;2023-08-06T05:54:47;0.46;;;0.46;;
66371;SDS011;53168;51.146;17.120;2023-08-06T05:57:17;0.52;;;0.52;;
66371;SDS011;53168;51.146;17.120;2023-08-06T05:59:46;0.35;;;0.35;;
66371;SDS011;53168;51.146;17.120;2023-08-06T06:02:16;0.50;;;0.50;;
66371;SDS011;53168;51.146;17.120;2023-08-06T06:04:50;0.42;;;0.42;;
66371;SDS011;53168;51.146;17.120;2023-08-06T06:07:19;0.34;;;0.34;;
66371;SDS011;53168;51.146;17.120;2023-08-06T06:09:49;0.36;;;0.36;;
66371;SDS011;53168;51.146;17.120;2023-08-06T06:12:18;0.36;;;0.36;;
66371;SDS011;53168;51.146;17.120;2023-08-06T06:14:49;0.29;;;0.29;;
66371;SDS011;53168;51.146;17.120;2023-08-06T06:17:19;0.37;;;0.37;;
66371;SDS011;53168;51.146;17.120;2023-08-06T06:19:52;0.45;;;0.45;;
66371;SDS011;53168;51.146;17.120;2023-08-06T06:22:21;0.33;;;0.33;;
66371;SDS011;53168;51.146;17.120;2023-08-06T06:24:51;0.37;;;0.37;;
66371;SDS011;53168;51.146;17.120;2023-08-06T06:27:21;0.36;;;0.36;;
66371;SDS011;53168;51.146;17.120;2023-08-06T06:29:50;0.32;;;0.31;;
66371;SDS011;53168;51.146;17.120;2023-08-06T06:32:21;0.41;;;0.40;;
66371;SDS011;53168;51.146;17.120;2023-08-06T06:34:51;0.35;;;0.35;;
66371;SDS011;53168;51.146;17.120;2023-08-06T06:37:22;0.40;;;0.39;;
66371;SDS011;53168;51.146;17.120;2023-08-06T06:39:52;0.34;;;0.34;;
66371;SDS011;53168;51.146;17.120;2023-08-06T06:42:22;0.28;;;0.27;;
66371;SDS011;53168;51.146;17.120;2023-08-06T06:44:52;0.41;;;0.40;;
66371;SDS011;53168;51.146;17.120;2023-08-06T06:47:22;0.40;;;0.39;;
66371;SDS011;53168;51.146;17.120;2023-08-06T06:49:52;0.50;;;0.49;;
66371;SDS011;53168;51.146;17.120;2023-08-06T06:52:22;0.53;;;0.52;;
66371;SDS011;53168;51.146;17.120;2023-08-06T06:54:51;0.32;;;0.32;;
66371;SDS011;53168;51.146;17.120;2023-08-06T06:57:24;0.42;;;0.41;;
66371;SDS011;53168;51.146;17.120;2023-08-06T06:59:54;0.47;;;0.47;;
66371;SDS011;53168;51.146;17.120;2023-08-06T07:02:24;0.49;;;0.49;;
66371;SDS011;53168;51.146;17.120;2023-08-06T07:04:54;0.49;;;0.49;;
66371;SDS011;53168;51.146;17.120;2023-08-06T07:07:27;0.33;;;0.33;;
66371;SDS011;53168;51.146;17.120;2023-08-06T07:09:57;0.34;;;0.34;;
66371;SDS011;53168;51.146;17.120;2023-08-06T07:12:26;0.38;;;0.38;;
66371;SDS011;53168;51.146;17.120;2023-08-06T07:14:56;0.57;;;0.57;;
66371;SDS011;53168;51.146;17.120;2023-08-06T07:20:16;0.48;;;0.48;;
66371;SDS011;53168;51.146;17.120;2023-08-06T07:22:46;0.71;;;0.71;;
66371;SDS011;53168;51.146;17.120;2023-08-06T07:25:17;0.54;;;0.54;;
66371;SDS011;53168;51.146;17.120;2023-08-06T07:27:57;0.38;;;0.38;;
66371;SDS011;53168;51.146;17.120;2023-08-06T07:30:29;0.41;;;0.41;;
66371;SDS011;53168;51.146;17.120;2023-08-06T07:33:18;0.44;;;0.44;;
66371;SDS011;53168;51.146;17.120;2023-08-06T07:35:52;0.50;;;0.50;;
66371;SDS011;53168;51.146;17.120;2023-08-06T07:38:22;0.49;;;0.49;;
66371;SDS011;53168;51.146;17.120;2023-08-06T07:40:54;0.45;;;0.45;;
66371;SDS011;53168;51.146;17.120;2023-08-06T07:43:24;0.55;;;0.55;;
66371;SDS011;53168;51.146;17.120;2023-08-06T07:45:55;0.50;;;0.50;;
66371;SDS011;53168;51.146;17.120;2023-08-06T07:48:28;0.51;;;0.51;;
66371;SDS011;53168;51.146;17.120;2023-08-06T07:51:00;0.50;;;0.50;;
66371;SDS011;53168;51.146;17.120;2023-08-06T07:53:30;0.49;;;0.49;;
66371;SDS011;53168;51.146;17.120;2023-08-06T07:56:00;0.42;;;0.42;;
66371;SDS011;53168;51.146;17.120;2023-08-06T07:58:32;0.49;;;0.49;;
66371;SDS011;53168;51.146;17.120;2023-08-06T08:01:01;0.64;;;0.64;;
66371;SDS011;53168;51.146;17.120;2023-08-06T08:03:35;0.76;;;0.76;;
66371;SDS011;53168;51.146;17.120;2023-08-06T08:06:04;0.69;;;0.69;;
66371;SDS011;53168;51.146;17.120;2023-08-06T08:08:42;0.87;;;0.87;;
66371;SDS011;53168;51.146;17.120;2023-08-06T08:11:13;0.74;;;0.74;;
66371;SDS011;53168;51.146;17.120;2023-08-06T08:13:57;0.76;;;0.76;;
66371;SDS011;53168;51.146;17.120;2023-08-06T08:16:56;0.74;;;0.74;;
66371;SDS011;53168;51.146;17.120;2023-08-06T08:22:31;0.99;;;0.99;;
66371;SDS011;53168;51.146;17.120;2023-08-06T08:25:07;1.19;;;1.19;;
66371;SDS011;53168;51.146;17.120;2023-08-06T08:27:57;1.17;;;1.17;;
66371;SDS011;53168;51.146;17.120;2023-08-06T08:30:30;1.29;;;1.29;;
66371;SDS011;53168;51.146;17.120;2023-08-06T08:33:15;1.43;;;1.43;;
66371;SDS011;53168;51.146;17.120;2023-08-06T08:35:49;1.86;;;1.86;;
66371;SDS011;53168;51.146;17.120;2023-08-06T08:38:49;1.62;;;1.62;;
66371;SDS011;53168;51.146;17.120;2023-08-06T08:41:24;1.82;;;1.82;;
66371;SDS011;53168;51.146;17.120;2023-08-06T08:44:03;1.79;;;1.79;;
66371;SDS011;53168;51.146;17.120;2023-08-06T08:46:46;1.94;;;1.94;;
66371;SDS011;53168;51.146;17.120;2023-08-06T08:49:54;2.15;;;2.15;;
66371;SDS011;53168;51.146;17.120;2023-08-06T09:00:08;2.11;;;2.11;;
66371;SDS011;53168;51.146;17.120;2023-08-06T09:03:39;5.28;;;5.28;;
66371;SDS011;53168;51.146;17.120;2023-08-06T09:06:23;2.23;;;2.23;;
66371;SDS011;53168;51.146;17.120;2023-08-06T09:09:04;1.89;;;1.89;;
66371;SDS011;53168;51.146;17.120;2023-08-06T09:11:44;1.94;;;1.94;;
66371;SDS011;53168;51.146;17.120;2023-08-06T09:14:40;1.64;;;1.64;;
66371;SDS011;53168;51.146;17.120;2023-08-06T09:17:28;1.40;;;1.40;;
66371;SDS011;53168;51.146;17.120;2023-08-06T09:20:15;1.57;;;1.57;;
66371;SDS011;53168;51.146;17.120;2023-08-06T09:25:55;1.14;;;1.14;;
66371;SDS011;53168;51.146;17.120;2023-08-06T09:28:38;3.61;;;3.60;;
66371;SDS011;53168;51.146;17.120;2023-08-06T09:31:33;1.88;;;1.87;;
66371;SDS011;53168;51.146;17.120;2023-08-06T09:34:14;0.99;;;0.99;;
66371;SDS011;53168;51.146;17.120;2023-08-06T09:36:48;3.07;;;3.07;;
66371;SDS011;53168;51.146;17.120;2023-08-06T09:39:26;2.46;;;2.46;;
66371;SDS011;53168;51.146;17.120;2023-08-06T09:45:08;1.54;;;1.52;;
66371;SDS011;53168;51.146;17.120;2023-08-06T09:47:46;1.10;;;1.10;;
66371;SDS011;53168;51.146;17.120;2023-08-06T09:50:28;0.83;;;0.83;;
66371;SDS011;53168;51.146;17.120;2023-08-06T09:53:05;0.90;;;0.90;;
66371;SDS011;53168;51.146;17.120;2023-08-06T09:55:42;0.85;;;0.85;;
66371;SDS011;53168;51.146;17.120;2023-08-06T10:05:30;1.33;;;1.33;;
66371;SDS011;53168;51.146;17.120;2023-08-06T10:08:30;0.93;;;0.93;;
66371;SDS011;53168;51.146;17.120;2023-08-06T10:16:01;1.16;;;1.12;;
66371;SDS011;53168;51.146;17.120;2023-08-06T10:19:06;1.29;;;1.28;;
66371;SDS011;53168;51.146;17.120;2023-08-06T10:22:41;1.70;;;1.69;;
66371;SDS011;53168;51.146;17.120;2023-08-06T10:25:41;1.20;;;1.20;;
66371;SDS011;53168;51.146;17.120;2023-08-06T10:39:51;1.01;;;1.01;;
66371;SDS011;53168;51.146;17.120;2023-08-06T10:43:06;1.67;;;1.39;;
66371;SDS011;53168;51.146;17.120;2023-08-06T10:46:36;1.33;;;1.33;;
66371;SDS011;53168;51.146;17.120;2023-08-06T10:52:54;1.36;;;1.36;;
66371;SDS011;53168;51.146;17.120;2023-08-06T10:55:58;1.18;;;1.18;;
66371;SDS011;53168;51.146;17.120;2023-08-06T10:58:46;1.13;;;1.13;;
66371;SDS011;53168;51.146;17.120;2023-08-06T11:02:00;1.21;;;1.21;;
66371;SDS011;53168;51.146;17.120;2023-08-06T11:04:57;1.09;;;1.09;;
66371;SDS011;53168;51.146;17.120;2023-08-06T11:08:19;1.06;;;1.06;;
66371;SDS011;53168;51.146;17.120;2023-08-06T11:11:53;0.99;;;0.99;;
66371;SDS011;53168;51.146;17.120;2023-08-06T11:14:31;0.89;;;0.89;;
66371;SDS011;53168;51.146;17.120;2023-08-06T11:17:10;0.99;;;0.99;;
66371;SDS011;53168;51.146;17.120;2023-08-06T11:19:44;1.05;;;1.05;;
66371;SDS011;53168;51.146;17.120;2023-08-06T11:22:19;0.65;;;0.65;;
66371;SDS011;53168;51.146;17.120;2023-08-06T11:24:55;0.86;;;0.86;;
66371;SDS011;53168;51.146;17.120;2023-08-06T11:27:30;0.87;;;0.87;;
66371;SDS011;53168;51.146;17.120;2023-08-06T11:30:05;0.94;;;0.94;;
66371;SDS011;53168;51.146;17.120;2023-08-06T11:32:47;0.98;;;0.98;;
66371;SDS011;53168;51.146;17.120;2023-08-06T11:35:21;0.96;;;0.96;;
66371;SDS011;53168;51.146;17.120;2023-08-06T11:37:56;0.92;;;0.92;;
66371;SDS011;53168;51.146;17.120;2023-08-06T11:40:30;1.09;;;1.09;;
66371;SDS011;53168;51.146;17.120;2023-08-06T11:43:11;1.12;;;1.12;;
66371;SDS011;53168;51.146;17.120;2023-08-06T11:45:45;1.07;;;1.07;;
66371;SDS011;53168;51.146;17.120;2023-08-06T11:48:25;1.04;;;1.04;;
66371;SDS011;53168;51.146;17.120;2023-08-06T11:50:59;1.08;;;1.08;;
66371;SDS011;53168;51.146;17.120;2023-08-06T11:53:34;1.19;;;1.19;;
66371;SDS011;53168;51.146;17.120;2023-08-06T11:56:09;1.03;;;1.03;;
66371;SDS011;53168;51.146;17.120;2023-08-06T11:58:43;0.94;;;0.94;;
66371;SDS011;53168;51.146;17.120;2023-08-06T12:01:19;1.08;;;1.08;;
66371;SDS011;53168;51.146;17.120;2023-08-06T12:03:59;1.00;;;1.00;;
66371;SDS011;53168;51.146;17.120;2023-08-06T12:06:42;0.98;;;0.98;;
66371;SDS011;53168;51.146;17.120;2023-08-06T12:09:16;0.84;;;0.84;;
66371;SDS011;53168;51.146;17.120;2023-08-06T12:11:50;0.86;;;0.86;;
66371;SDS011;53168;51.146;17.120;2023-08-06T12:14:26;0.91;;;0.91;;
66371;SDS011;53168;51.146;17.120;2023-08-06T12:17:00;0.96;;;0.96;;
66371;SDS011;53168;51.146;17.120;2023-08-06T12:19:34;0.79;;;0.79;;
66371;SDS011;53168;51.146;17.120;2023-08-06T12:22:10;0.80;;;0.80;;
66371;SDS011;53168;51.146;17.120;2023-08-06T12:24:45;1.02;;;1.02;;
66371;SDS011;53168;51.146;17.120;2023-08-06T12:27:19;1.01;;;1.01;;
66371;SDS011;53168;51.146;17.120;2023-08-06T12:32:48;0.97;;;0.97;;
66371;SDS011;53168;51.146;17.120;2023-08-06T12:35:22;1.02;;;1.02;;
66371;SDS011;53168;51.146;17.120;2023-08-06T12:37:56;0.90;;;0.90;;
66371;SDS011;53168;51.146;17.120;2023-08-06T12:40:32;1.31;;;1.31;;
66371;SDS011;53168;51.146;17.120;2023-08-06T12:43:42;1.31;;;1.31;;
66371;SDS011;53168;51.146;17.120;2023-08-06T12:46:16;1.07;;;1.07;;
66371;SDS011;53168;51.146;17.120;2023-08-06T12:48:50;1.50;;;1.50;;
66371;SDS011;53168;51.146;17.120;2023-08-06T12:51:26;1.51;;;1.51;;
66371;SDS011;53168;51.146;17.120;2023-08-06T12:54:02;1.61;;;1.61;;
66371;SDS011;53168;51.146;17.120;2023-08-06T12:56:36;1.29;;;1.29;;
66371;SDS011;53168;51.146;17.120;2023-08-06T12:59:09;1.16;;;1.16;;
66371;SDS011;53168;51.146;17.120;2023-08-06T13:01:44;1.43;;;1.43;;
66371;SDS011;53168;51.146;17.120;2023-08-06T13:04:19;1.17;;;1.17;;
66371;SDS011;53168;51.146;17.120;2023-08-06T13:06:54;1.19;;;1.19;;
66371;SDS011;53168;51.146;17.120;2023-08-06T13:09:32;1.16;;;1.16;;
66371;SDS011;53168;51.146;17.120;2023-08-06T13:12:06;1.27;;;1.27;;
66371;SDS011;53168;51.146;17.120;2023-08-06T13:14:40;1.14;;;1.14;;
66371;SDS011;53168;51.146;17.120;2023-08-06T13:17:16;1.41;;;1.41;;
66371;SDS011;53168;51.146;17.120;2023-08-06T13:19:58;1.51;;;1.51;;
66371;SDS011;53168;51.146;17.120;2023-08-06T13:22:36;2.50;;;2.50;;
66371;SDS011;53168;51.146;17.120;2023-08-06T13:28:15;3.42;;;3.36;;
66371;SDS011;53168;51.146;17.120;2023-08-06T13:30:59;1.81;;;1.78;;
66371;SDS011;53168;51.146;17.120;2023-08-06T13:33:36;1.74;;;1.72;;
66371;SDS011;53168;51.146;17.120;2023-08-06T13:36:11;1.47;;;1.46;;
66371;SDS011;53168;51.146;17.120;2023-08-06T13:38:47;1.51;;;1.50;;
66371;SDS011;53168;51.146;17.120;2023-08-06T13:41:22;1.64;;;1.64;;
66371;SDS011;53168;51.146;17.120;2023-08-06T13:43:57;1.46;;;1.46;;
66371;SDS011;53168;51.146;17.120;2023-08-06T13:46:33;1.23;;;1.23;;
66371;SDS011;53168;51.146;17.120;2023-08-06T13:49:08;1.29;;;1.29;;
66371;SDS011;53168;51.146;17.120;2023-08-06T13:51:45;1.29;;;1.29;;
66371;SDS011;53168;51.146;17.120;2023-08-06T13:54:20;1.24;;;1.24;;
66371;SDS011;53168;51.146;17.120;2023-08-06T13:56:55;1.44;;;1.44;;
66371;SDS011;53168;51.146;17.120;2023-08-06T13:59:29;1.47;;;1.47;;
66371;SDS011;53168;51.146;17.120;2023-08-06T14:02:07;1.15;;;1.15;;
66371;SDS011;53168;51.146;17.120;2023-08-06T14:04:44;1.30;;;1.30;;
66371;SDS011;53168;51.146;17.120;2023-08-06T14:07:19;1.16;;;1.16;;
66371;SDS011;53168;51.146;17.120;2023-08-06T14:09:54;1.10;;;1.10;;
66371;SDS011;53168;51.146;17.120;2023-08-06T14:12:40;1.09;;;1.09;;
66371;SDS011;53168;51.146;17.120;2023-08-06T14:15:37;1.02;;;1.02;;
66371;SDS011;53168;51.146;17.120;2023-08-06T14:18:17;1.03;;;1.03;;
66371;SDS011;53168;51.146;17.120;2023-08-06T14:21:05;0.92;;;0.92;;
66371;SDS011;53168;51.146;17.120;2023-08-06T14:23:46;0.96;;;0.96;;
66371;SDS011;53168;51.146;17.120;2023-08-06T14:26:20;0.96;;;0.96;;
66371;SDS011;53168;51.146;17.120;2023-08-06T14:28:55;1.04;;;1.04;;
66371;SDS011;53168;51.146;17.120;2023-08-06T14:31:39;0.99;;;0.99;;
66371;SDS011;53168;51.146;17.120;2023-08-06T14:34:13;1.33;;;1.33;;
66371;SDS011;53168;51.146;17.120;2023-08-06T14:36:48;1.37;;;1.37;;
66371;SDS011;53168;51.146;17.120;2023-08-06T14:39:27;1.74;;;1.74;;
66371;SDS011;53168;51.146;17.120;2023-08-06T14:42:03;1.32;;;1.32;;
66371;SDS011;53168;51.146;17.120;2023-08-06T14:44:39;1.83;;;1.83;;
66371;SDS011;53168;51.146;17.120;2023-08-06T14:47:16;2.67;;;2.67;;
66371;SDS011;53168;51.146;17.120;2023-08-06T14:49:56;1.42;;;1.42;;
66371;SDS011;53168;51.146;17.120;2023-08-06T14:52:33;1.69;;;1.69;;
66371;SDS011;53168;51.146;17.120;2023-08-06T14:55:10;2.03;;;2.03;;
66371;SDS011;53168;51.146;17.120;2023-08-06T14:57:53;1.60;;;1.60;;
66371;SDS011;53168;51.146;17.120;2023-08-06T15:00:28;1.76;;;1.76;;
66371;SDS011;53168;51.146;17.120;2023-08-06T15:03:04;1.69;;;1.69;;
66371;SDS011;53168;51.146;17.120;2023-08-06T15:05:45;1.73;;;1.73;;
66371;SDS011;53168;51.146;17.120;2023-08-06T15:08:48;1.71;;;1.71;;
66371;SDS011;53168;51.146;17.120;2023-08-06T15:11:30;2.57;;;2.57;;
66371;SDS011;53168;51.146;17.120;2023-08-06T15:14:16;1.86;;;1.86;;
66371;SDS011;53168;51.146;17.120;2023-08-06T15:16:51;1.96;;;1.96;;
66371;SDS011;53168;51.146;17.120;2023-08-06T15:19:27;2.02;;;2.02;;
66371;SDS011;53168;51.146;17.120;2023-08-06T15:22:02;1.85;;;1.85;;
66371;SDS011;53168;51.146;17.120;2023-08-06T15:24:36;2.59;;;2.59;;
66371;SDS011;53168;51.146;17.120;2023-08-06T15:27:15;1.58;;;1.58;;
66371;SDS011;53168;51.146;17.120;2023-08-06T15:29:49;2.05;;;2.05;;
66371;SDS011;53168;51.146;17.120;2023-08-06T15:32:23;1.73;;;1.73;;
66371;SDS011;53168;51.146;17.120;2023-08-06T15:34:58;1.94;;;1.94;;
66371;SDS011;53168;51.146;17.120;2023-08-06T15:37:35;1.70;;;1.70;;
66371;SDS011;53168;51.146;17.120;2023-08-06T15:40:10;1.61;;;1.61;;
66371;SDS011;53168;51.146;17.120;2023-08-06T15:42:45;1.68;;;1.68;;
66371;SDS011;53168;51.146;17.120;2023-08-06T15:45:20;1.67;;;1.67;;
66371;SDS011;53168;51.146;17.120;2023-08-06T15:47:57;1.59;;;1.59;;
66371;SDS011;53168;51.146;17.120;2023-08-06T15:50:31;1.84;;;1.84;;
66371;SDS011;53168;51.146;17.120;2023-08-06T15:53:07;2.12;;;2.12;;
66371;SDS011;53168;51.146;17.120;2023-08-06T15:55:41;1.75;;;1.75;;
66371;SDS011;53168;51.146;17.120;2023-08-06T15:58:18;1.81;;;1.81;;
66371;SDS011;53168;51.146;17.120;2023-08-06T16:00:53;1.96;;;1.96;;
66371;SDS011;53168;51.146;17.120;2023-08-06T16:03:27;2.30;;;2.30;;
66371;SDS011;53168;51.146;17.120;2023-08-06T16:06:01;1.77;;;1.77;;
66371;SDS011;53168;51.146;17.120;2023-08-06T16:08:37;2.29;;;2.29;;
66371;SDS011;53168;51.146;17.120;2023-08-06T16:11:11;2.14;;;2.14;;
66371;SDS011;53168;51.146;17.120;2023-08-06T16:13:44;2.44;;;2.44;;
66371;SDS011;53168;51.146;17.120;2023-08-06T16:16:20;2.33;;;2.33;;